North Hudson, New York
Current Conditions -  °F | °C
As of 4:35 AM on Thursday 23 Oct 2014 (Local Time) from K6B0 Reporting Station
Light Rain Light Rain  
Wind Chill: 38°   Ceiling: 1800
Heat Index: 43°   Visibility: 10mi
Dew Point: 40°   Wind: 9mph
Humidity: 87%   Direction: 20°NNE
Pressure: 29.96"   Gusts: 17mph
Location:  43.95°N, 73.73°W
Report Text: K6B0 230835Z AUTO 02008G15KT 340V050 10SM -RA OVC018 06/04 A2996 RMK AO2 T00630043
Loading
Personal Weather Stations






























Interactive Weather Map
Tropical Storm Tracking
New forecast layout! Learn more

10-Day Weather Forecast

Advertisements
Track Severe Weather on mobile